Terminal Aerodrome Forecast
Issued by NWS

Home | Current Version | Previous Version | Graphics & Text | Print | Product List | Glossary On
Versions: 1 2 3 4 5 6 7 8 9 10 11 12 13 14 15
000
FTUS43 KBIS 080100 AAA
TAFJMS
TAF AMD
KJMS 080135Z 0802/0824 32011KT P6SM VCSH SCT070 BKN100
     FM080300 31010KT P6SM SCT080 SCT120
     FM081300 33015KT P6SM SCT050=

USA.gov is the U.S. government's official web portal to all federal, state and local government web resources and services.